الصفحة الرئيسية
METAR-TAF:

METAR-TAF

مطار :

Cordova, ألاسكا, الولايات المتحدة

دائرة عرض: 60-29-30N, خط طول: 145-28-40W, ارتفاع: 13 متر

مراقبة الطقس الحالي

تاريخ ووقت الإصدار 24 دقيقة قبل الساعة 19:53UTC
ريح 3 عقدة من الجنوب
درجة الحرارة 20°درجة مئوية
الرطوبة 56%
ضغط 1007 hPa
الرؤية: 16.1 كم
غيوم قليلة على ارتفاع 2000 قدم
غيوم قليلة على ارتفاع 10000 قدم

METAR: PACV 221953Z 17003KT 10SM FEW020 FEW100 20/11 A2974 RMK AO2 SLP070 T02000111

زمن: 12:17 (20:17 UTC)

توقعات

تاريخ ووقت الإصدار 2ساعات و 54 دقيقة قبل الساعة 17:23UTC
التوقعات صالحة من22 الساعة 18 UTC إلى 23 الساعة 18 UTC
ريح 4 عقدة من الشرق/الجنوب الشرقي
الرؤية: 10 كم
غيوم قليلة على ارتفاع 20000 قدم
من 22 الساعة 2100 UTC
ريح 7 عقدة من الجنوب الغربي
الرؤية: 10 كم
غيوم متفرقة على ارتفاع 15000 قدم
من 23 الساعة 0700 UTC
ريح 4 عقدةمن اتجاهات متغيرة
الرؤية: 10 كم
غيوم مفككة على ارتفاع 8000 قدم

TAF: PACV 221723Z 2218/2318 11004KT P6SM FEW200 FM222100 23007KT P6SM SCT150 FM230700 VRB04KT P6SM BKN080

أرصاد الطقس والتوقعات من أكثر من 4000 مطار (تقارير الطقس للمطار METAR والتنبؤ بالطقس بالمطارTAF).

المحطات المتاحة هي النقط الصفراء والحمراء على الخريطة.

حرك المؤشر فوق النقطة لمعرفة اسم المحطة.

ثم انقر لمعرفة أرصاد وتوقعات الطقس.

لتغيير الخارطة: اضغط على الأزرار الخضراء مع رمز الصليب الأسود للتكبير. على الزر الأخضر مع شرطة للتصغير، أو على الأسهم الخضراء للخرائط المجاورة.


METAR-TAF: